Time;durP1;ratioP1;P1;durP2;ratioP2;P2;SDS_P1;SDS_P2;PMS_P1;PMS_P2;Temp;Humidity;BMP_temperature;BMP_pressure;BME280_temperature;BME280_humidity;BME280_pressure;Samples;Min_cycle;Max_cycle;Signal;HPM_P1;HPM_P2
2022/08/14 00:00:43;;;;;;;1.50;1.15;;;;;;;23.35;44.89;93150.34;4923904;29;20045;-92
2022/08/14 00:03:27;;;;;;;1.50;1.08;;;;;;;23.34;45.02;93152.34;4906250;29;20056;-92
2022/08/14 00:05:54;;;;;;;1.10;1.00;;;;;;;23.35;45.12;93147.56;4886097;29;20048;-92
2022/08/14 00:08:20;;;;;;;1.10;1.00;;;;;;;23.35;45.30;93150.34;4923696;29;20398;-91
2022/08/14 00:10:57;;;;;;;1.30;1.02;;;;;;;23.33;45.23;93139.84;4907747;29;20052;-92
2022/08/14 00:13:29;;;;;;;1.88;1.30;;;;;;;23.34;45.13;93151.63;4869611;29;20085;-91
2022/08/14 00:15:58;;;;;;;2.05;0.90;;;;;;;23.35;44.89;93150.34;4875607;29;20071;-93
2022/08/14 00:18:44;;;;;;;1.13;0.90;;;;;;;23.33;44.93;93145.38;4881376;29;20037;-92
2022/08/14 00:21:16;;;;;;;1.27;1.17;;;;;;;23.33;45.15;93139.84;4887211;29;20528;-92
2022/08/14 00:23:42;;;;;;;1.30;1.00;;;;;;;23.34;45.08;93138.56;4905842;29;20049;-91
2022/08/14 00:26:11;;;;;;;1.77;1.23;;;;;;;23.34;44.89;93133.03;4892586;29;20145;-92
2022/08/14 00:28:42;;;;;;;1.25;1.00;;;;;;;23.32;45.05;93132.84;4870728;29;20048;-92
2022/08/14 00:31:13;;;;;;;1.25;1.08;;;;;;;23.33;45.38;93131.56;4867510;29;20083;-92
2022/08/14 00:33:44;;;;;;;1.30;1.08;;;;;;;23.34;45.10;93129.56;4863219;29;20041;-92
2022/08/14 00:36:13;;;;;;;1.45;1.10;;;;;;;23.34;45.17;93129.56;4876068;29;20040;-92
2022/08/14 00:38:51;;;;;;;1.10;1.00;;;;;;;23.31;45.20;93120.34;4878085;29;20411;-91
2022/08/14 00:41:28;;;;;;;0.90;0.85;;;;;;;23.31;45.36;93128.63;4861259;29;20061;-91
2022/08/14 00:44:02;;;;;;;0.90;0.80;;;;;;;23.32;45.21;93123.84;4877684;29;20101;-93
2022/08/14 00:46:28;;;;;;;1.95;0.98;;;;;;;23.33;45.12;93117.78;4830501;29;20056;-91
2022/08/14 00:48:55;;;;;;;1.27;1.15;;;;;;;23.32;45.36;93123.84;4866813;29;20041;-91
2022/08/14 00:51:31;;;;;;;1.83;1.40;;;;;;;23.31;45.17;93120.34;4904992;29;20041;-91
2022/08/14 00:54:08;;;;;;;0.80;0.80;;;;;;;23.31;45.32;93117.59;4882137;29;20081;-92
2022/08/14 00:56:37;;;;;;;1.40;1.20;;;;;;;23.31;45.56;93125.88;4887399;29;20396;-93
2022/08/14 00:59:08;;;;;;;1.60;1.13;;;;;;;23.32;45.24;93118.31;4921611;29;20040;-91
2022/08/14 01:01:35;;;;;;;1.85;1.00;;;;;;;23.31;45.28;93114.84;4881051;29;20051;-92
2022/08/14 01:04:09;;;;;;;1.48;1.10;;;;;;;23.30;45.46;93118.88;4901291;29;20059;-91
2022/08/14 01:06:36;;;;;;;1.55;1.30;;;;;;;23.30;45.44;93113.34;4897320;29;20400;-92
2022/08/14 01:09:02;;;;;;;1.20;1.10;;;;;;;23.30;45.19;93118.88;4877234;29;20086;-91
2022/08/14 01:11:28;;;;;;;1.00;0.90;;;;;;;23.30;45.25;93118.88;4898111;29;20181;-92
2022/08/14 01:14:05;;;;;;;1.42;0.90;;;;;;;23.30;45.27;93113.34;4900948;29;20040;-92
2022/08/14 01:16:35;;;;;;;1.30;1.20;;;;;;;23.32;45.32;93121.09;4907754;29;20036;-92
2022/08/14 01:22:06;;;;;;;1.40;1.20;;;;;;;23.29;45.46;93122.91;4877475;29;20554;-92
2022/08/14 01:24:37;;;;;;;1.30;1.20;;;;;;;23.31;45.29;93119.63;4931548;29;20082;-91
2022/08/14 01:27:04;;;;;;;1.30;1.20;;;;;;;23.31;45.40;93125.13;4863364;29;20055;-91
2022/08/14 01:29:36;;;;;;;1.15;1.00;;;;;;;23.31;45.53;93127.88;4904066;29;20871;-92
2022/08/14 01:32:03;;;;;;;1.25;0.95;;;;;;;23.31;45.38;93130.66;4881195;29;20039;-92
2022/08/14 01:34:31;;;;;;;1.73;1.00;;;;;;;23.29;45.33;93138.72;4879735;29;20044;-92
2022/08/14 01:37:04;;;;;;;1.40;1.23;;;;;;;23.29;45.41;93135.97;4875189;29;20045;-91
2022/08/14 01:39:35;;;;;;;1.23;1.13;;;;;;;23.30;45.37;93129.16;4871962;29;20583;-91
2022/08/14 01:42:07;;;;;;;1.00;0.88;;;;;;;23.30;45.36;93124.41;4829126;29;20049;-92
2022/08/14 01:44:47;;;;;;;1.25;0.90;;;;;;;23.29;45.42;93133.94;4849621;29;20052;-92
2022/08/14 01:47:29;;;;;;;1.50;1.20;;;;;;;23.28;45.41;93126.22;4870560;29;20041;-92
2022/08/14 01:49:56;;;;;;;0.88;0.88;;;;;;;23.30;45.28;93120.91;4858690;29;20591;-92
2022/08/14 01:52:24;;;;;;;0.98;0.80;;;;;;;23.28;45.39;93132.47;4880937;29;20057;-92
2022/08/14 01:54:54;;;;;;;1.20;0.93;;;;;;;23.28;45.14;93128.97;4893947;29;20571;-91
2022/08/14 01:57:21;;;;;;;1.50;1.10;;;;;;;23.27;45.54;93127.50;4879485;29;20401;-92
2022/08/14 01:59:49;;;;;;;1.33;1.00;;;;;;;23.26;45.61;93121.25;4891856;29;20652;-92
2022/08/14 02:02:22;;;;;;;1.33;1.00;;;;;;;23.28;45.32;93117.94;4877702;29;20131;-91
2022/08/14 02:04:52;;;;;;;1.30;1.20;;;;;;;23.28;45.52;93120.72;4834255;29;20420;-92
2022/08/14 02:07:20;;;;;;;1.58;1.40;;;;;;;23.28;45.32;93118.69;4863468;29;20057;-92
2022/08/14 02:09:56;;;;;;;1.50;1.23;;;;;;;23.27;45.43;93116.47;4831412;29;20041;-92
2022/08/14 02:12:28;;;;;;;1.33;1.13;;;;;;;23.27;45.29;93110.97;4875045;29;20045;-92
2022/08/14 02:14:55;;;;;;;1.42;1.15;;;;;;;23.27;45.55;93108.19;4806761;29;20044;-92
2022/08/14 02:17:27;;;;;;;1.33;1.00;;;;;;;23.26;45.37;93112.97;4832788;29;20045;-91
2022/08/14 02:19:56;;;;;;;1.70;1.17;;;;;;;23.27;45.36;93119.22;4874466;29;20044;-92
2022/08/14 02:22:31;;;;;;;1.33;1.20;;;;;;;23.25;45.46;93109.50;4880851;29;20135;-92
2022/08/14 02:25:04;;;;;;;1.02;0.80;;;;;;;23.28;45.44;93106.91;4890627;29;20047;-92
2022/08/14 02:27:32;;;;;;;1.23;1.00;;;;;;;23.27;45.20;93106.19;4903130;29;20044;-91
2022/08/14 02:30:02;;;;;;;1.30;1.15;;;;;;;23.25;45.31;93106.00;4897367;29;20046;-91
2022/08/14 02:32:33;;;;;;;1.55;1.10;;;;;;;23.25;45.50;93097.72;4906480;29;20525;-91
2022/08/14 02:35:09;;;;;;;1.23;1.10;;;;;;;23.24;45.66;93099.75;4909288;28;20079;-93
2022/08/14 02:37:35;;;;;;;1.55;1.30;;;;;;;23.24;45.58;93091.47;4897604;29;20043;-92
2022/08/14 02:40:09;;;;;;;1.20;1.10;;;;;;;23.26;45.55;93090.91;4853349;29;20108;-92
2022/08/14 02:42:36;;;;;;;1.70;1.13;;;;;;;23.25;45.39;93087.44;4869232;29;20052;-91
2022/08/14 02:45:14;;;;;;;0.95;0.90;;;;;;;23.24;45.43;93090.72;4889076;29;20127;-91
2022/08/14 02:47:41;;;;;;;1.00;0.90;;;;;;;23.24;45.35;93091.47;4885251;29;20072;-92
2022/08/14 02:50:16;;;;;;;1.65;1.23;;;;;;;23.23;45.53;93094.78;4876237;29;20697;-93
2022/08/14 02:52:52;;;;;;;1.80;1.20;;;;;;;23.24;45.56;93085.22;4909992;29;20048;-91
2022/08/14 02:55:20;;;;;;;1.00;0.90;;;;;;;23.25;45.60;93075.66;4895854;29;20388;-91
2022/08/14 02:57:47;;;;;;;1.10;0.80;;;;;;;23.23;45.51;93081.72;4884985;29;20044;-91
2022/08/14 03:00:17;;;;;;;1.02;0.80;;;;;;;23.23;45.68;93080.97;4872886;29;20048;-91
2022/08/14 03:02:44;;;;;;;1.08;0.93;;;;;;;23.23;45.47;93072.72;4886197;29;20044;-92
2022/08/14 03:05:19;;;;;;;1.00;0.90;;;;;;;23.21;45.48;93081.53;4910805;29;20432;-92
2022/08/14 03:07:52;;;;;;;2.55;1.40;;;;;;;23.22;45.74;93074.72;4917219;29;20130;-92
2022/08/14 03:10:19;;;;;;;1.33;1.00;;;;;;;23.22;45.55;93083.00;4898339;29;20040;-92
2022/08/14 03:12:50;;;;;;;1.67;1.05;;;;;;;23.22;45.69;93082.28;4910747;29;20035;-92
2022/08/14 03:15:16;;;;;;;1.58;1.10;;;;;;;23.22;45.63;93068.47;4901534;29;20040;-91
2022/08/14 03:17:51;;;;;;;1.27;1.17;;;;;;;23.22;45.62;93071.25;4912254;29;20507;-92
2022/08/14 03:20:23;;;;;;;1.08;0.90;;;;;;;23.19;45.61;93064.81;4926963;29;20575;-91
2022/08/14 03:23:01;;;;;;;1.90;1.00;;;;;;;23.21;45.51;93072.53;4912744;29;20084;-91
2022/08/14 03:25:32;;;;;;;2.05;1.25;;;;;;;23.22;45.39;93074.72;4915689;29;20044;-91
2022/08/14 03:28:02;;;;;;;1.08;0.82;;;;;;;23.22;45.76;93065.72;4858094;29;20040;-92
2022/08/14 03:30:34;;;;;;;1.10;1.00;;;;;;;23.21;45.73;93064.97;4913021;29;20047;-92
2022/08/14 03:33:09;;;;;;;1.13;0.90;;;;;;;23.20;45.70;93055.25;4869176;29;20050;-91
2022/08/14 03:35:36;;;;;;;2.25;1.00;;;;;;;23.21;45.46;93058.72;4938334;29;20051;-92
2022/08/14 03:38:23;;;;;;;0.90;0.80;;;;;;;23.19;45.50;93048.25;4920078;29;20536;-92
2022/08/14 03:40:50;;;;;;;1.27;0.98;;;;;;;23.21;45.70;93053.22;4869718;29;20148;-91
2022/08/14 03:43:21;;;;;;;1.58;1.05;;;;;;;23.19;45.77;93047.50;4806056;29;20042;-92
2022/08/14 03:45:52;;;;;;;1.50;1.20;;;;;;;23.20;45.52;93049.00;4862125;29;20518;-92
2022/08/14 03:48:22;;;;;;;1.38;1.02;;;;;;;23.20;45.71;93051.75;4860191;29;20417;-91
2022/08/14 03:50:53;;;;;;;1.48;1.20;;;;;;;23.21;45.68;93056.72;4851927;29;20049;-92
2022/08/14 03:53:22;;;;;;;1.20;1.10;;;;;;;23.21;45.71;93064.25;4868709;29;20555;-91
2022/08/14 03:55:49;;;;;;;0.90;0.80;;;;;;;23.19;45.70;93061.31;4858161;29;20565;-92
2022/08/14 03:58:23;;;;;;;1.25;1.00;;;;;;;23.18;45.62;93060.56;4860494;29;20125;-92
2022/08/14 04:00:54;;;;;;;1.40;1.30;;;;;;;23.19;45.64;93066.81;4844730;29;20044;-92
2022/08/14 04:03:29;;;;;;;1.20;1.10;;;;;;;23.19;45.69;93075.09;4854000;29;20045;-91
2022/08/14 04:05:56;;;;;;;1.55;1.08;;;;;;;23.20;45.79;93074.53;4848077;29;20458;-91
2022/08/14 04:08:23;;;;;;;0.98;0.80;;;;;;;23.19;45.38;93070.31;4886113;29;20067;-92
2022/08/14 04:11:04;;;;;;;1.42;1.15;;;;;;;23.17;45.84;93074.91;4909134;29;20126;-92
2022/08/14 04:13:37;;;;;;;1.55;1.15;;;;;;;23.18;45.86;93074.34;4946715;28;20071;-91
2022/08/14 04:16:10;;;;;;;0.98;0.80;;;;;;;23.17;45.68;93072.88;4953083;28;20053;-92
2022/08/14 04:18:45;;;;;;;1.20;0.98;;;;;;;23.18;45.94;93076.38;4875243;29;20040;-92
2022/08/14 04:21:16;;;;;;;1.05;0.85;;;;;;;23.17;45.94;93072.16;4924286;28;20049;-91
2022/08/14 04:23:44;;;;;;;1.42;1.20;;;;;;;23.19;45.81;93073.06;4933710;28;20495;-91
2022/08/14 04:26:20;;;;;;;1.95;1.10;;;;;;;23.17;45.81;93074.91;4931918;28;20067;-91
2022/08/14 04:28:55;;;;;;;2.10;1.00;;;;;;;23.16;45.71;93065.94;4906897;29;20056;-92
2022/08/14 04:31:23;;;;;;;1.55;0.98;;;;;;;23.19;45.89;93066.81;4878011;29;20590;-92
2022/08/14 04:33:51;;;;;;;1.35;1.13;;;;;;;23.19;45.74;93066.81;4903185;29;20056;-92
2022/08/14 04:36:19;;;;;;;1.65;1.10;;;;;;;23.18;45.82;93065.34;4862744;29;20116;-93
2022/08/14 04:44:32;;;;;;;1.90;1.25;;;;;;;23.17;46.01;93064.59;4856487;29;20120;-91
2022/08/14 04:49:45;;;;;;;1.63;1.27;;;;;;;23.16;45.88;93054.91;4818567;29;20064;-90
2022/08/14 04:52:34;;;;;;;1.20;1.02;;;;;;;23.16;45.84;93054.16;4827344;29;20393;-93
2022/08/14 04:55:09;;;;;;;1.17;1.00;;;;;;;23.15;45.81;93053.41;4838643;29;20580;-91
2022/08/14 04:57:42;;;;;;;1.05;0.95;;;;;;;23.15;45.98;93055.44;4877068;29;20047;-92
2022/08/14 05:00:12;;;;;;;1.10;0.80;;;;;;;23.16;45.70;93060.41;4863102;29;20729;-92
2022/08/14 05:02:38;;;;;;;1.00;0.90;;;;;;;23.15;45.77;93055.44;4911507;29;20499;-92
2022/08/14 05:05:07;;;;;;;1.70;1.20;;;;;;;23.15;45.76;93056.19;4876957;29;20044;-92
2022/08/14 05:07:41;;;;;;;1.63;1.10;;;;;;;23.16;45.90;93043.13;4901505;29;20051;-92
2022/08/14 05:10:08;;;;;;;2.17;1.42;;;;;;;23.16;45.93;93054.91;4921307;29;20043;-92
2022/08/14 05:12:38;;;;;;;0.93;0.73;;;;;;;23.15;45.80;93044.41;4918263;29;20044;-91
2022/08/14 05:15:09;;;;;;;1.30;1.10;;;;;;;23.15;45.90;93039.63;4878382;29;20059;-91
2022/08/14 05:17:39;;;;;;;;;;;;;;;23.18;45.90;93037.78;4842576;29;20037;-91
2022/08/14 05:20:08;;;;;;;1.10;0.90;;;;;;;23.15;45.84;93036.88;4856160;29;19923;-92
2022/08/14 05:22:38;;;;;;;1.58;1.13;;;;;;;23.15;46.01;93036.13;4841055;29;20041;-92
2022/08/14 05:25:05;;;;;;;;;;;;;;;23.16;45.88;93035.59;4862800;29;20053;-92
2022/08/14 05:27:33;;;;;;;0.85;0.65;;;;;;;23.16;45.81;93032.09;4857110;29;19966;-91
2022/08/14 05:30:08;;;;;;;1.52;1.20;;;;;;;23.14;45.77;93027.13;4802574;29;20091;-92
2022/08/14 05:32:38;;;;;;;1.02;0.93;;;;;;;23.15;45.70;93025.09;4842886;29;20088;-91
2022/08/14 05:37:29;;;;;;;0.90;0.73;;;;;;;23.16;45.64;93021.06;5108191;23;20063;-92
2022/08/14 05:39:57;;;;;;;1.40;1.10;;;;;;;23.14;45.98;93024.38;5020116;28;20049;-92
2022/08/14 05:42:27;;;;;;;1.02;0.93;;;;;;;23.15;45.97;93023.09;4993209;28;20042;-92
2022/08/14 05:45:03;;;;;;;1.75;1.10;;;;;;;23.15;45.77;93028.59;4980052;28;20104;-93
2022/08/14 05:47:31;;;;;;;2.33;1.60;;;;;;;23.17;45.74;93017.00;4963446;28;20047;-92
2022/08/14 05:50:01;;;;;;;1.52;1.17;;;;;;;23.17;46.03;93022.50;4944866;28;20059;-90
2022/08/14 05:52:39;;;;;;;1.50;1.10;;;;;;;23.17;45.76;93023.25;4943166;28;20039;-93
2022/08/14 05:55:07;;;;;;;1.65;1.10;;;;;;;23.18;45.81;93016.44;4933717;28;20046;-92
2022/08/14 05:57:44;;;;;;;1.00;0.90;;;;;;;23.18;45.93;93018.47;4902391;29;20075;-92
2022/08/14 06:00:16;;;;;;;1.15;1.05;;;;;;;23.18;45.77;93016.44;4936848;29;20054;-92
2022/08/14 06:02:48;;;;;;;0.70;0.68;;;;;;;23.19;45.83;93020.69;4915431;29;20116;-93
2022/08/14 06:05:23;;;;;;;0.85;0.80;;;;;;;23.19;45.75;93014.44;4906011;29;20040;-92
2022/08/14 06:07:52;;;;;;;1.20;0.93;;;;;;;23.20;45.70;93013.88;4884180;29;20039;-92
2022/08/14 06:10:20;;;;;;;0.95;0.82;;;;;;;23.18;45.79;93012.94;4859543;29;20055;-92
2022/08/14 06:12:45;;;;;;;0.77;0.70;;;;;;;23.19;45.58;93009.66;4899930;29;20048;-91
2022/08/14 06:15:21;;;;;;;1.15;0.90;;;;;;;23.20;45.54;93011.13;4879807;29;20089;-93
2022/08/14 06:17:51;;;;;;;1.70;1.00;;;;;;;23.19;45.84;93006.16;4899122;29;20120;-91
2022/08/14 06:20:38;;;;;;;1.02;0.90;;;;;;;23.19;45.71;93006.88;4889674;29;20062;-91
2022/08/14 06:23:15;;;;;;;1.30;0.98;;;;;;;23.19;45.59;93006.16;4848377;29;20045;-92
2022/08/14 06:25:43;;;;;;;1.35;1.13;;;;;;;23.20;45.66;93008.34;4854311;29;20421;-92
2022/08/14 06:28:20;;;;;;;1.23;0.80;;;;;;;23.20;45.66;93002.84;4817244;29;20039;-92
2022/08/14 06:30:50;;;;;;;2.13;1.42;;;;;;;23.21;45.70;93012.59;4811059;29;20051;-92
2022/08/14 06:33:26;;;;;;;1.42;1.10;;;;;;;23.19;45.96;92998.63;4824678;29;20151;-92
2022/08/14 06:35:51;;;;;;;1.80;1.10;;;;;;;23.21;45.45;92996.03;4817097;29;20041;-92
2022/08/14 06:38:22;;;;;;;1.20;0.70;;;;;;;23.21;45.68;92998.06;4859937;29;20121;-92
2022/08/14 06:40:50;;;;;;;;;;;;;;;23.22;45.62;93000.28;4869097;29;20042;-92
2022/08/14 06:43:19;;;;;;;1.35;1.05;;;;;;;23.20;45.51;92997.31;4858891;29;19932;-92
2022/08/14 06:45:58;;;;;;;1.13;0.80;;;;;;;23.20;45.76;92993.84;4856803;29;20041;-93
2022/08/14 06:48:26;;;;;;;1.27;0.90;;;;;;;23.22;45.62;92988.50;4857881;29;20600;-92
2022/08/14 06:50:55;;;;;;;1.10;1.00;;;;;;;23.18;45.81;92991.63;4865822;29;20048;-91
2022/08/14 06:53:32;;;;;;;1.52;1.10;;;;;;;23.21;45.88;93000.81;4847732;29;20035;-92
2022/08/14 06:56:03;;;;;;;1.02;0.82;;;;;;;23.22;45.62;92994.03;4951220;29;20122;-92
2022/08/14 06:58:38;;;;;;;1.35;1.00;;;;;;;23.21;45.50;92987.78;4910004;29;20048;-92
2022/08/14 07:06:39;;;;;;;1.55;1.08;;;;;;;23.23;45.85;92989.97;4930729;29;20102;-92
2022/08/14 07:09:06;;;;;;;1.33;1.13;;;;;;;23.23;45.86;93003.75;4954586;28;20035;-92
2022/08/14 07:11:34;;;;;;;2.30;1.42;;;;;;;23.24;45.46;92997.69;4894992;29;20598;-92
2022/08/14 07:14:04;;;;;;;;;;;;;;;23.26;45.64;93002.66;4909262;29;20068;-92
2022/08/14 07:16:40;;;;;;;1.10;0.80;;;;;;;23.28;45.56;93005.59;4898656;29;19920;-93
2022/08/14 07:19:10;;;;;;;1.35;1.00;;;;;;;23.27;45.66;93006.91;4877899;29;20135;-92
2022/08/14 07:21:40;;;;;;;;;;;;;;;23.30;45.83;92997.53;4895268;29;20036;-91
2022/08/14 07:24:17;;;;;;;1.17;0.93;;;;;;;23.31;45.51;92998.25;4914706;29;19993;-92
2022/08/14 07:26:50;;;;;;;1.10;0.90;;;;;;;23.32;45.64;93000.47;4927028;29;20055;-92
2022/08/14 07:29:21;;;;;;;1.08;0.88;;;;;;;23.33;45.40;93001.19;4914154;29;20078;-92
2022/08/14 07:31:59;;;;;;;1.20;0.85;;;;;;;23.34;45.38;92997.16;4888025;29;20375;-92
2022/08/14 07:34:31;;;;;;;0.90;0.80;;;;;;;23.34;45.16;93008.91;4877215;29;20048;-92
2022/08/14 07:36:59;;;;;;;1.60;1.17;;;;;;;23.38;45.33;93003.03;4891912;29;20044;-92
2022/08/14 07:39:27;;;;;;;1.90;0.90;;;;;;;23.43;45.22;93007.59;4888901;29;20563;-92
2022/08/14 07:41:58;;;;;;;0.93;0.82;;;;;;;23.42;45.03;93004.13;4879168;29;20426;-92
2022/08/14 07:44:24;;;;;;;1.23;0.80;;;;;;;23.45;45.37;92999.50;4850152;29;20117;-92
2022/08/14 07:46:56;;;;;;;2.03;1.42;;;;;;;23.45;45.20;92999.50;4879883;29;20647;-92
2022/08/14 07:49:40;;;;;;;1.20;0.77;;;;;;;23.43;45.15;92999.34;4886686;29;20041;-91
2022/08/14 07:52:06;;;;;;;1.35;1.05;;;;;;;23.47;45.43;92994.19;4849700;29;20045;-92
2022/08/14 07:54:47;;;;;;;0.82;0.80;;;;;;;23.47;45.37;92994.19;4856061;29;20037;-92
2022/08/14 07:57:16;;;;;;;1.55;1.17;;;;;;;23.49;45.15;93000.63;4901030;29;20411;-92
2022/08/14 07:59:42;;;;;;;1.58;1.02;;;;;;;23.49;45.19;92991.59;4916212;29;20261;-93
2022/08/14 08:02:11;;;;;;;0.98;0.85;;;;;;;23.50;45.27;92984.81;4894811;29;20063;-92
2022/08/14 08:04:38;;;;;;;0.95;0.63;;;;;;;23.52;45.25;92976.72;4924457;29;20036;-92
2022/08/14 08:07:06;;;;;;;1.20;1.10;;;;;;;23.49;45.27;92981.31;4972064;28;20117;-92
2022/08/14 08:09:36;;;;;;;;;;;;;;;23.51;45.16;92983.50;4940815;28;20046;-92
2022/08/14 08:12:05;;;;;;;0.73;0.73;;;;;;;23.50;45.08;92980.03;4978725;28;19921;-92
2022/08/14 08:14:36;;;;;;;1.60;1.20;;;;;;;23.51;45.36;92992.53;4952902;28;20042;-92
2022/08/14 08:17:02;;;;;;;0.98;0.80;;;;;;;23.51;45.50;93000.81;4957681;28;20255;-92
2022/08/14 08:19:41;;;;;;;1.45;0.80;;;;;;;23.50;45.45;92996.56;4978328;28;20038;-92
2022/08/14 08:22:08;;;;;;;1.00;0.85;;;;;;;23.51;45.25;93000.81;5014264;28;20041;-92
2022/08/14 08:24:47;;;;;;;1.70;0.90;;;;;;;23.50;45.25;93004.13;4961649;28;20567;-92
2022/08/14 08:27:15;;;;;;;1.30;0.85;;;;;;;23.51;45.29;92998.03;4965999;28;20567;-92
2022/08/14 08:29:52;;;;;;;1.40;1.20;;;;;;;23.52;45.34;93002.31;4901150;29;20050;-93
2022/08/14 08:32:26;;;;;;;1.00;0.90;;;;;;;23.49;45.54;93008.16;4911294;29;20110;-93
2022/08/14 08:34:52;;;;;;;1.70;1.23;;;;;;;23.52;45.46;93007.09;4915425;29;20481;-92
2022/08/14 08:37:21;;;;;;;1.67;1.02;;;;;;;23.52;45.40;93013.34;4898209;29;20048;-92
2022/08/14 08:39:48;;;;;;;1.67;1.02;;;;;;;23.53;45.49;93011.31;4926278;29;20055;-91
2022/08/14 08:42:27;;;;;;;1.70;0.98;;;;;;;23.49;45.48;93006.13;4923181;29;20051;-91
2022/08/14 08:45:15;;;;;;;2.40;1.13;;;;;;;23.49;45.41;93011.66;4904114;29;20048;-92
2022/08/14 08:47:49;;;;;;;1.33;0.77;;;;;;;23.51;45.32;93005.59;4845126;29;20052;-92
2022/08/14 08:50:32;;;;;;;3.70;1.30;;;;;;;23.49;45.42;93011.66;4866285;29;20415;-93
2022/08/14 08:53:04;;;;;;;4.07;1.98;;;;;;;23.51;45.53;93009.06;4878633;29;20061;-92
2022/08/14 08:56:00;;;;;;;6.32;1.23;;;;;;;23.50;45.38;93004.13;4866325;29;20049;-93
2022/08/14 08:58:29;;;;;;;4.10;1.52;;;;;;;23.51;45.34;92997.31;4907333;29;20036;-91
2022/08/14 09:01:00;;;;;;;3.10;1.08;;;;;;;23.49;45.58;92992.34;4877532;29;20041;-92
2022/08/14 09:03:31;;;;;;;1.67;1.10;;;;;;;23.49;45.55;92988.84;4890231;29;20051;-92
2022/08/14 09:06:02;;;;;;;3.58;1.27;;;;;;;23.50;45.22;92987.56;4871421;29;20408;-93
2022/08/14 09:08:37;;;;;;;2.17;0.93;;;;;;;23.49;45.65;92984.06;4879126;29;20594;-93
2022/08/14 09:11:13;;;;;;;3.78;1.30;;;;;;;23.50;45.42;92973.75;4887322;29;20496;-92
2022/08/14 09:13:40;;;;;;;1.98;1.00;;;;;;;23.49;45.58;92970.28;4881093;29;20049;-92
2022/08/14 09:16:09;;;;;;;1.25;0.95;;;;;;;23.49;45.41;92964.75;4867372;29;20121;-92
2022/08/14 09:18:45;;;;;;;1.48;1.08;;;;;;;23.48;45.58;92966.03;4866179;29;20166;-92
2022/08/14 09:21:13;;;;;;;1.83;1.38;;;;;;;23.52;45.47;92963.69;4866545;29;20044;-92
2022/08/14 09:23:45;;;;;;;5.75;1.30;;;;;;;23.52;45.45;92962.94;4894094;29;20119;-91
2022/08/14 09:26:13;;;;;;;1.02;0.70;;;;;;;23.52;45.48;92962.94;4851555;29;20122;-92
2022/08/14 09:28:42;;;;;;;1.45;1.00;;;;;;;23.53;45.41;92961.66;4871586;29;20050;-92
2022/08/14 09:31:09;;;;;;;1.52;1.13;;;;;;;23.53;45.68;92950.63;4834001;29;20058;-91
2022/08/14 09:33:53;;;;;;;2.42;1.10;;;;;;;23.51;45.41;92956.66;4839786;29;20727;-92
2022/08/14 09:36:33;;;;;;;2.83;1.23;;;;;;;23.53;45.28;92956.13;4838678;29;20061;-92
2022/08/14 09:39:21;;;;;;;1.48;1.02;;;;;;;23.51;45.42;92951.13;4822349;29;20125;-92
2022/08/14 09:41:59;;;;;;;3.08;1.10;;;;;;;23.53;45.34;92943.06;4829224;29;20120;-92
2022/08/14 09:44:50;;;;;;;1.35;0.90;;;;;;;23.51;45.60;92956.66;4827937;29;20480;-91
2022/08/14 09:47:48;;;;;;;1.95;1.17;;;;;;;23.53;45.65;92959.63;4801930;29;20042;-93
2022/08/14 09:50:43;;;;;;;1.23;0.98;;;;;;;23.54;45.52;92963.13;4795104;29;20093;-93
2022/08/14 09:53:31;;;;;;;1.05;0.93;;;;;;;23.54;45.51;92960.38;4767368;30;20083;-92
2022/08/14 09:56:08;;;;;;;1.70;1.20;;;;;;;23.54;45.52;92957.59;4777235;30;20111;-92
2022/08/14 09:58:50;;;;;;;1.92;1.20;;;;;;;23.55;45.64;92953.56;4802788;29;20043;-93
2022/08/14 10:01:22;;;;;;;1.80;1.10;;;;;;;23.56;45.37;92950.25;4804635;29;20091;-92
2022/08/14 10:03:55;;;;;;;1.67;1.00;;;;;;;23.57;45.48;92948.94;4817580;29;20427;-92
2022/08/14 10:06:26;;;;;;;1.80;1.20;;;;;;;23.57;45.73;92956.50;4811333;29;20042;-93
2022/08/14 10:09:06;;;;;;;1.33;0.93;;;;;;;23.57;45.55;92950.97;4803233;29;20057;-92
2022/08/14 10:11:35;;;;;;;1.52;1.40;;;;;;;23.58;45.60;92955.22;4812427;29;20043;-92
2022/08/14 10:14:20;;;;;;;1.38;1.10;;;;;;;23.56;45.56;92955.03;4793345;29;20046;-92
2022/08/14 10:16:51;;;;;;;1.25;1.08;;;;;;;23.58;45.49;92944.91;4817711;29;20038;-92
2022/08/14 10:19:30;;;;;;;1.45;1.20;;;;;;;23.57;45.63;92948.94;4880476;29;20042;-92
2022/08/14 10:22:01;;;;;;;3.13;1.13;;;;;;;23.56;45.63;92957.78;4915115;28;20036;-92
2022/08/14 10:24:31;;;;;;;1.52;1.02;;;;;;;23.58;45.45;92944.16;4925268;29;20179;-93
2022/08/14 10:27:01;;;;;;;1.75;1.08;;;;;;;23.56;45.53;92947.47;4882126;29;20041;-92
2022/08/14 10:29:35;;;;;;;2.20;1.20;;;;;;;23.57;45.60;92948.94;4868248;29;20045;-93
2022/08/14 10:32:09;;;;;;;2.20;1.48;;;;;;;23.56;45.75;92947.47;4888236;29;20062;-92
2022/08/14 10:34:39;;;;;;;2.30;1.50;;;;;;;23.56;45.63;92941.97;4933166;28;20039;-93
2022/08/14 10:37:10;;;;;;;1.33;1.23;;;;;;;23.57;45.64;92934.41;4908329;29;20056;-92
2022/08/14 10:39:38;;;;;;;1.80;1.38;;;;;;;23.57;45.58;92934.41;4900443;29;20415;-92
2022/08/14 10:42:07;;;;;;;1.45;1.10;;;;;;;23.59;45.66;92937.38;4908809;28;20039;-91
2022/08/14 10:44:40;;;;;;;2.10;1.38;;;;;;;23.59;45.73;92937.38;4971071;28;20396;-92
2022/08/14 10:47:13;;;;;;;1.67;1.20;;;;;;;23.60;45.63;92946.38;4955308;28;20050;-92
2022/08/14 10:49:48;;;;;;;1.42;1.25;;;;;;;23.58;45.65;92931.09;4915414;29;20039;-92
2022/08/14 10:52:23;;;;;;;1.25;1.00;;;;;;;23.57;45.63;92929.63;4921387;29;20238;-92
2022/08/14 10:55:08;;;;;;;1.42;1.02;;;;;;;23.60;45.52;92922.25;4917601;29;20041;-92
2022/08/14 10:57:46;;;;;;;3.60;1.20;;;;;;;23.59;45.60;92931.84;4918877;29;20088;-92
2022/08/14 11:00:18;;;;;;;1.33;1.02;;;;;;;23.60;45.72;92929.81;4879315;29;20041;-92
2022/08/14 11:03:01;;;;;;;1.55;1.20;;;;;;;23.58;45.93;92928.34;4915974;29;20091;-92
2022/08/14 11:05:49;;;;;;;1.63;1.33;;;;;;;23.57;45.80;92932.41;4903203;29;20499;-93
2022/08/14 11:08:21;;;;;;;1.52;0.90;;;;;;;23.61;45.83;92922.97;4950326;28;20066;-92
2022/08/14 11:11:00;;;;;;;1.98;1.20;;;;;;;23.59;45.77;92920.81;4972385;28;20171;-92
2022/08/14 11:13:29;;;;;;;2.28;1.30;;;;;;;23.61;45.65;92923.72;4956328;28;20428;-93
2022/08/14 11:16:00;;;;;;;1.05;0.95;;;;;;;23.62;45.72;92932.72;4964871;23;20056;-93
2022/08/14 11:18:29;;;;;;;2.00;1.33;;;;;;;23.61;45.89;92925.75;4950746;28;20053;-92
2022/08/14 11:21:13;;;;;;;2.43;1.53;;;;;;;23.61;45.82;92925.75;4953843;28;20042;-92
2022/08/14 11:23:40;;;;;;;1.73;1.20;;;;;;;23.62;45.64;92921.69;4946840;28;20313;-92
2022/08/14 11:26:08;;;;;;;1.50;1.20;;;;;;;23.61;45.78;92932.00;4886091;29;20083;-91
2022/08/14 11:28:42;;;;;;;2.60;1.30;;;;;;;23.62;45.52;92919.66;4849209;29;20041;-92
2022/08/14 11:31:12;;;;;;;1.45;1.15;;;;;;;23.62;45.64;92924.44;4865038;29;20056;-92
2022/08/14 11:33:40;;;;;;;1.23;0.88;;;;;;;23.62;45.87;92914.16;4851841;29;20128;-92
2022/08/14 11:36:12;;;;;;;1.08;0.95;;;;;;;23.63;45.70;92925.91;4845787;29;20188;-92
2022/08/14 11:38:41;;;;;;;1.55;1.25;;;;;;;23.63;45.79;92925.91;4852207;29;20117;-93
2022/08/14 11:41:08;;;;;;;1.55;1.27;;;;;;;23.62;45.92;92916.91;4815617;29;20047;-92
2022/08/14 11:43:47;;;;;;;1.45;1.13;;;;;;;23.62;45.77;92922.44;4814129;29;20050;-92
2022/08/14 11:46:14;;;;;;;1.20;1.08;;;;;;;23.64;45.88;92927.41;4798663;29;20153;-93
2022/08/14 11:48:47;;;;;;;2.05;1.40;;;;;;;23.63;45.84;92921.13;4801705;29;20515;-92
2022/08/14 11:51:24;;;;;;;1.70;1.23;;;;;;;23.64;45.93;92911.56;4841246;29;20046;-92
2022/08/14 11:53:57;;;;;;;1.42;1.17;;;;;;;23.63;45.77;92917.66;4827987;29;20038;-92
2022/08/14 11:56:40;;;;;;;1.45;1.30;;;;;;;23.63;45.75;92917.66;4850101;29;20064;-91
2022/08/14 11:59:14;;;;;;;1.85;1.50;;;;;;;23.62;45.75;92919.66;4867408;29;20045;-92
2022/08/14 12:01:41;;;;;;;1.80;1.60;;;;;;;23.63;45.78;92926.66;4863599;29;20432;-92
2022/08/14 12:04:17;;;;;;;1.23;1.13;;;;;;;23.63;45.76;92914.88;4884713;29;20404;-92
2022/08/14 12:06:49;;;;;;;1.80;1.20;;;;;;;23.64;45.66;92922.59;4847254;29;20052;-92
2022/08/14 12:09:37;;;;;;;;;;;;;;;23.61;45.94;92904.41;4864965;29;20041;-92
2022/08/14 12:12:39;;;;;;;1.77;1.20;;;;;;;23.62;45.92;92903.13;4792170;29;20321;-91
2022/08/14 12:15:10;;;;;;;2.22;1.27;;;;;;;23.65;45.97;92904.75;4799488;29;20079;-93
2022/08/14 12:17:55;;;;;;;1.73;1.40;;;;;;;23.62;45.82;92899.63;4832214;29;20129;-92